sensor_id;sensor_type;location;lat;lon;timestamp;pressure;altitude;pressure_sealevel;temperature;humidity
37892;BME280;45797;47.466;9.486;2023-02-26T00:03:13;95103.38;;;2.88;68.00
37892;BME280;45797;47.466;9.486;2023-02-26T00:08:15;95096.22;;;2.93;68.19
37892;BME280;45797;47.466;9.486;2023-02-26T00:13:18;95097.38;;;2.87;68.00
37892;BME280;45797;47.466;9.486;2023-02-26T00:18:21;95103.97;;;2.93;68.74
37892;BME280;45797;47.466;9.486;2023-02-26T00:23:27;95104.25;;;3.04;68.03
37892;BME280;45797;47.466;9.486;2023-02-26T00:28:28;95103.41;;;3.19;67.61
37892;BME280;45797;47.466;9.486;2023-02-26T00:33:29;95104.75;;;3.26;68.01
37892;BME280;45797;47.466;9.486;2023-02-26T00:38:40;95099.56;;;3.26;68.11
37892;BME280;45797;47.466;9.486;2023-02-26T00:43:43;95094.81;;;3.34;68.13
37892;BME280;45797;47.466;9.486;2023-02-26T00:54:36;95095.56;;;3.36;67.69
37892;BME280;45797;47.466;9.486;2023-02-26T00:59:37;95088.63;;;3.37;67.77
37892;BME280;45797;47.466;9.486;2023-02-26T01:04:38;95086.53;;;3.43;67.60
37892;BME280;45797;47.466;9.486;2023-02-26T01:09:40;95088.94;;;3.47;67.98
37892;BME280;45797;47.466;9.486;2023-02-26T01:14:40;95091.34;;;3.50;67.69
37892;BME280;45797;47.466;9.486;2023-02-26T01:20:03;95089.03;;;3.45;67.86
37892;BME280;45797;47.466;9.486;2023-02-26T01:25:15;95081.84;;;3.50;67.53
37892;BME280;45797;47.466;9.486;2023-02-26T01:30:20;95077.44;;;3.52;67.08
37892;BME280;45797;47.466;9.486;2023-02-26T01:51:59;95068.34;;;3.45;67.28
37892;BME280;45797;47.466;9.486;2023-02-26T01:57:12;95074.75;;;3.54;66.96
37892;BME280;45797;47.466;9.486;2023-02-26T02:02:22;95069.91;;;3.48;67.33
37892;BME280;45797;47.466;9.486;2023-02-26T02:07:32;95073.50;;;3.45;67.49
37892;BME280;45797;47.466;9.486;2023-02-26T02:23:19;95072.69;;;3.44;67.44
37892;BME280;45797;47.466;9.486;2023-02-26T02:34:21;95077.03;;;3.28;68.55
37892;BME280;45797;47.466;9.486;2023-02-26T02:39:55;95080.72;;;3.24;68.00
37892;BME280;45797;47.466;9.486;2023-02-26T02:45:02;95074.13;;;3.19;68.36
37892;BME280;45797;47.466;9.486;2023-02-26T02:50:34;95085.22;;;3.05;68.26
37892;BME280;45797;47.466;9.486;2023-02-26T02:55:51;95085.47;;;3.00;68.09
37892;BME280;45797;47.466;9.486;2023-02-26T03:01:06;95085.22;;;3.05;68.36
37892;BME280;45797;47.466;9.486;2023-02-26T03:06:10;95077.47;;;3.05;68.28
37892;BME280;45797;47.466;9.486;2023-02-26T03:11:13;95077.47;;;3.05;68.05
37892;BME280;45797;47.466;9.486;2023-02-26T03:21:41;95085.38;;;3.02;68.15
37892;BME280;45797;47.466;9.486;2023-02-26T03:32:01;95090.41;;;3.05;67.76
37892;BME280;45797;47.466;9.486;2023-02-26T03:37:10;95092.38;;;3.00;67.65
37892;BME280;45797;47.466;9.486;2023-02-26T03:42:27;95096.38;;;2.90;68.13
37892;BME280;45797;47.466;9.486;2023-02-26T03:47:35;95101.47;;;2.91;67.77
37892;BME280;45797;47.466;9.486;2023-02-26T03:52:49;95110.72;;;2.79;67.59
37892;BME280;45797;47.466;9.486;2023-02-26T03:58:14;95106.38;;;2.80;67.77
37892;BME280;45797;47.466;9.486;2023-02-26T04:03:50;95116.97;;;2.75;67.67
37892;BME280;45797;47.466;9.486;2023-02-26T04:08:54;95102.22;;;2.77;67.75
37892;BME280;45797;47.466;9.486;2023-02-26T04:13:58;95103.03;;;2.78;67.20
37892;BME280;45797;47.466;9.486;2023-02-26T04:19:09;95120.22;;;2.79;67.45
37892;BME280;45797;47.466;9.486;2023-02-26T04:24:11;95120.44;;;2.74;67.72
37892;BME280;45797;47.466;9.486;2023-02-26T04:29:12;95127.31;;;2.75;67.34
37892;BME280;45797;47.466;9.486;2023-02-26T04:34:29;95124.72;;;2.75;67.44
37892;BME280;45797;47.466;9.486;2023-02-26T04:39:30;95125.63;;;2.74;67.45
37892;BME280;45797;47.466;9.486;2023-02-26T04:44:32;95119.38;;;2.78;67.29
37892;BME280;45797;47.466;9.486;2023-02-26T04:49:34;95126.22;;;2.79;67.33
37892;BME280;45797;47.466;9.486;2023-02-26T04:54:35;95131.03;;;2.70;67.36
37892;BME280;45797;47.466;9.486;2023-02-26T04:59:37;95130.03;;;2.72;67.55
37892;BME280;45797;47.466;9.486;2023-02-26T05:04:40;95129.72;;;2.78;67.01
37892;BME280;45797;47.466;9.486;2023-02-26T05:09:41;95129.22;;;2.72;67.69
37892;BME280;45797;47.466;9.486;2023-02-26T05:14:49;95137.97;;;2.69;67.49
37892;BME280;45797;47.466;9.486;2023-02-26T05:20:03;95137.13;;;2.69;67.02
37892;BME280;45797;47.466;9.486;2023-02-26T05:25:13;95149.69;;;2.59;67.17
37892;BME280;45797;47.466;9.486;2023-02-26T05:30:14;95148.16;;;2.55;67.67
37892;BME280;45797;47.466;9.486;2023-02-26T05:35:22;95152.44;;;2.56;66.72
37892;BME280;45797;47.466;9.486;2023-02-26T05:40:23;95163.66;;;2.55;67.49
37892;BME280;45797;47.466;9.486;2023-02-26T05:45:36;95165.38;;;2.56;67.18
37892;BME280;45797;47.466;9.486;2023-02-26T05:50:37;95160.25;;;2.54;66.95
37892;BME280;45797;47.466;9.486;2023-02-26T05:55:38;95172.19;;;2.57;67.57
37892;BME280;45797;47.466;9.486;2023-02-26T06:00:38;95173.16;;;2.54;67.40
37892;BME280;45797;47.466;9.486;2023-02-26T06:05:39;95183.00;;;2.48;67.30
37892;BME280;45797;47.466;9.486;2023-02-26T06:10:39;95179.88;;;2.58;66.97
37892;BME280;45797;47.466;9.486;2023-02-26T06:15:39;95191.50;;;2.50;67.18
37892;BME280;45797;47.466;9.486;2023-02-26T06:20:46;95197.50;;;2.50;67.17
37892;BME280;45797;47.466;9.486;2023-02-26T06:25:50;95207.00;;;2.50;67.21
37892;BME280;45797;47.466;9.486;2023-02-26T06:30:52;95213.22;;;2.46;67.12
37892;BME280;45797;47.466;9.486;2023-02-26T06:35:59;95224.88;;;2.37;66.97
37892;BME280;45797;47.466;9.486;2023-02-26T06:41:01;95222.59;;;2.31;67.14
37892;BME280;45797;47.466;9.486;2023-02-26T06:46:03;95234.50;;;2.34;67.48
37892;BME280;45797;47.466;9.486;2023-02-26T06:51:04;95231.09;;;2.33;66.86
37892;BME280;45797;47.466;9.486;2023-02-26T06:56:04;95238.84;;;2.33;66.99
37892;BME280;45797;47.466;9.486;2023-02-26T07:01:09;95252.59;;;2.34;67.31
37892;BME280;45797;47.466;9.486;2023-02-26T07:06:11;95263.09;;;2.31;67.11
37892;BME280;45797;47.466;9.486;2023-02-26T07:11:14;95252.69;;;2.32;66.69
37892;BME280;45797;47.466;9.486;2023-02-26T07:16:14;95264.59;;;2.35;66.67
37892;BME280;45797;47.466;9.486;2023-02-26T07:21:15;95271.97;;;2.42;66.50
37892;BME280;45797;47.466;9.486;2023-02-26T07:26:16;95270.53;;;2.37;66.66
37892;BME280;45797;47.466;9.486;2023-02-26T07:31:17;95276.25;;;2.43;66.49
37892;BME280;45797;47.466;9.486;2023-02-26T07:36:18;95278.09;;;2.58;65.82
37892;BME280;45797;47.466;9.486;2023-02-26T07:41:21;95267.50;;;2.63;66.39
37892;BME280;45797;47.466;9.486;2023-02-26T07:46:22;95277.63;;;2.68;66.30
37892;BME280;45797;47.466;9.486;2023-02-26T07:51:23;95279.50;;;2.81;65.63
37892;BME280;45797;47.466;9.486;2023-02-26T07:56:24;95283.63;;;2.85;65.30
37892;BME280;45797;47.466;9.486;2023-02-26T08:01:25;95277.53;;;2.86;65.47
37892;BME280;45797;47.466;9.486;2023-02-26T08:06:28;95278.50;;;2.84;65.84
37892;BME280;45797;47.466;9.486;2023-02-26T08:11:46;95283.00;;;2.80;65.54
37892;BME280;45797;47.466;9.486;2023-02-26T08:16:48;95275.31;;;2.96;64.99
37892;BME280;45797;47.466;9.486;2023-02-26T08:21:51;95281.53;;;3.09;64.90
37892;BME280;45797;47.466;9.486;2023-02-26T08:26:54;95292.22;;;3.03;64.92
37892;BME280;45797;47.466;9.486;2023-02-26T08:31:56;95303.22;;;3.07;64.85
37892;BME280;45797;47.466;9.486;2023-02-26T08:36:56;95289.81;;;3.16;64.79
37892;BME280;45797;47.466;9.486;2023-02-26T08:42:05;95291.59;;;3.15;64.17
37892;BME280;45797;47.466;9.486;2023-02-26T08:47:08;95293.16;;;3.18;64.28
37892;BME280;45797;47.466;9.486;2023-02-26T08:52:09;95293.34;;;3.15;63.93
37892;BME280;45797;47.466;9.486;2023-02-26T08:57:12;95296.09;;;2.95;64.21
37892;BME280;45797;47.466;9.486;2023-02-26T09:02:12;95297.84;;;2.94;65.10
37892;BME280;45797;47.466;9.486;2023-02-26T09:07:15;95310.38;;;3.02;64.21
37892;BME280;45797;47.466;9.486;2023-02-26T09:12:19;95308.31;;;3.08;63.95
37892;BME280;45797;47.466;9.486;2023-02-26T09:17:27;95315.41;;;3.05;63.68
37892;BME280;45797;47.466;9.486;2023-02-26T09:22:28;95303.97;;;3.09;64.26
37892;BME280;45797;47.466;9.486;2023-02-26T09:27:28;95292.09;;;3.22;63.73
37892;BME280;45797;47.466;9.486;2023-02-26T09:32:29;95300.72;;;3.38;62.74
37892;BME280;45797;47.466;9.486;2023-02-26T09:37:32;95307.00;;;3.50;63.03
37892;BME280;45797;47.466;9.486;2023-02-26T09:42:55;95305.50;;;3.46;63.11
37892;BME280;45797;47.466;9.486;2023-02-26T09:48:03;95304.72;;;3.61;62.94
37892;BME280;45797;47.466;9.486;2023-02-26T09:53:21;95317.75;;;3.76;62.38
37892;BME280;45797;47.466;9.486;2023-02-26T10:09:15;95312.78;;;4.20;61.50
37892;BME280;45797;47.466;9.486;2023-02-26T10:14:31;95319.19;;;4.44;60.92
37892;BME280;45797;47.466;9.486;2023-02-26T10:19:37;95313.16;;;4.59;60.56
37892;BME280;45797;47.466;9.486;2023-02-26T10:24:50;95306.56;;;4.84;60.01
37892;BME280;45797;47.466;9.486;2023-02-26T10:29:59;95307.34;;;5.00;59.98
37892;BME280;45797;47.466;9.486;2023-02-26T10:35:13;95313.28;;;5.02;60.32
37892;BME280;45797;47.466;9.486;2023-02-26T10:51:24;95316.22;;;4.96;60.23
37892;BME280;45797;47.466;9.486;2023-02-26T10:56:54;95333.88;;;5.05;60.31
37892;BME280;45797;47.466;9.486;2023-02-26T11:01:58;95318.63;;;4.85;60.55
37892;BME280;45797;47.466;9.486;2023-02-26T11:07:02;95345.53;;;4.82;60.58
37892;BME280;45797;47.466;9.486;2023-02-26T11:12:13;95344.56;;;4.85;60.17
37892;BME280;45797;47.466;9.486;2023-02-26T11:17:20;95338.13;;;4.76;60.51
37892;BME280;45797;47.466;9.486;2023-02-26T11:22:32;95348.41;;;4.78;60.33
37892;BME280;45797;47.466;9.486;2023-02-26T11:27:37;95330.47;;;4.89;60.31
37892;BME280;45797;47.466;9.486;2023-02-26T11:32:41;95342.69;;;4.87;60.67
37892;BME280;45797;47.466;9.486;2023-02-26T11:37:53;95337.31;;;4.60;60.57
37892;BME280;45797;47.466;9.486;2023-02-26T11:42:57;95329.50;;;4.46;61.11
37892;BME280;45797;47.466;9.486;2023-02-26T11:48:05;95327.41;;;4.37;61.06
37892;BME280;45797;47.466;9.486;2023-02-26T11:53:17;95316.53;;;4.30;61.08
37892;BME280;45797;47.466;9.486;2023-02-26T11:58:21;95333.84;;;4.29;61.09
37892;BME280;45797;47.466;9.486;2023-02-26T12:03:28;95347.44;;;4.33;60.75
37892;BME280;45797;47.466;9.486;2023-02-26T12:08:36;95347.44;;;4.33;60.43
37892;BME280;45797;47.466;9.486;2023-02-26T12:13:57;95358.00;;;4.30;60.17
37892;BME280;45797;47.466;9.486;2023-02-26T12:29:58;95344.28;;;4.28;59.89
37892;BME280;45797;47.466;9.486;2023-02-26T12:40:55;95344.84;;;4.33;60.37
37892;BME280;45797;47.466;9.486;2023-02-26T13:08:04;95347.53;;;4.47;59.51
37892;BME280;45797;47.466;9.486;2023-02-26T13:13:33;95342.06;;;4.68;59.21
37892;BME280;45797;47.466;9.486;2023-02-26T13:19:26;95343.72;;;4.84;58.92
37892;BME280;45797;47.466;9.486;2023-02-26T13:24:22;95345.19;;;4.88;58.45
37892;BME280;45797;47.466;9.486;2023-02-26T13:29:29;95348.94;;;4.99;58.63
37892;BME280;45797;47.466;9.486;2023-02-26T13:34:56;95347.69;;;5.06;58.63
37892;BME280;45797;47.466;9.486;2023-02-26T13:51:29;95344.56;;;5.29;58.34
37892;BME280;45797;47.466;9.486;2023-02-26T14:01:33;95351.00;;;5.52;57.83
37892;BME280;45797;47.466;9.486;2023-02-26T14:06:42;95333.91;;;5.34;57.92
37892;BME280;45797;47.466;9.486;2023-02-26T14:12:01;95339.16;;;5.04;58.33
37892;BME280;45797;47.466;9.486;2023-02-26T14:43:40;95353.41;;;5.41;57.54
37892;BME280;45797;47.466;9.486;2023-02-26T14:48:42;95359.53;;;5.54;57.72
37892;BME280;45797;47.466;9.486;2023-02-26T14:59:59;95347.69;;;5.20;58.25
37892;BME280;45797;47.466;9.486;2023-02-26T15:26:45;95387.91;;;5.43;57.74
37892;BME280;45797;47.466;9.486;2023-02-26T15:31:59;95395.66;;;5.29;58.51
37892;BME280;45797;47.466;9.486;2023-02-26T15:37:03;95416.59;;;5.26;58.34
37892;BME280;45797;47.466;9.486;2023-02-26T15:42:05;95420.06;;;5.10;58.93
37892;BME280;45797;47.466;9.486;2023-02-26T15:47:06;95414.19;;;5.23;58.46
37892;BME280;45797;47.466;9.486;2023-02-26T15:52:15;95414.63;;;5.15;58.66
37892;BME280;45797;47.466;9.486;2023-02-26T15:57:26;95428.03;;;5.07;58.65
37892;BME280;45797;47.466;9.486;2023-02-26T16:02:30;95427.63;;;4.99;58.56
37892;BME280;45797;47.466;9.486;2023-02-26T16:07:33;95428.97;;;4.91;59.13
37892;BME280;45797;47.466;9.486;2023-02-26T16:12:35;95429.31;;;4.69;59.54
37892;BME280;45797;47.466;9.486;2023-02-26T16:17:45;95435.50;;;4.50;59.62
37892;BME280;45797;47.466;9.486;2023-02-26T16:22:56;95434.75;;;4.33;60.14
37892;BME280;45797;47.466;9.486;2023-02-26T16:28:03;95449.69;;;4.12;60.42
37892;BME280;45797;47.466;9.486;2023-02-26T16:33:15;95446.28;;;3.94;60.10
37892;BME280;45797;47.466;9.486;2023-02-26T16:38:20;95441.59;;;3.85;60.38
37892;BME280;45797;47.466;9.486;2023-02-26T16:43:57;95454.03;;;3.61;60.62
37892;BME280;45797;47.466;9.486;2023-02-26T16:54:34;95451.59;;;3.23;61.35
37892;BME280;45797;47.466;9.486;2023-02-26T16:59:37;95461.16;;;3.21;61.92
37892;BME280;45797;47.466;9.486;2023-02-26T17:04:38;95479.03;;;3.08;61.46
37892;BME280;45797;47.466;9.486;2023-02-26T17:09:51;95499.06;;;3.05;61.14
37892;BME280;45797;47.466;9.486;2023-02-26T17:15:00;95510.00;;;3.10;61.58
37892;BME280;45797;47.466;9.486;2023-02-26T17:20:04;95532.47;;;2.91;62.02
37892;BME280;45797;47.466;9.486;2023-02-26T17:25:35;95517.69;;;2.75;62.34
37892;BME280;45797;47.466;9.486;2023-02-26T17:30:44;95519.19;;;2.79;62.12
37892;BME280;45797;47.466;9.486;2023-02-26T17:35:44;95526.13;;;2.79;62.12
37892;BME280;45797;47.466;9.486;2023-02-26T17:40:47;95544.22;;;2.79;62.62
37892;BME280;45797;47.466;9.486;2023-02-26T17:46:01;95532.81;;;2.83;61.88
37892;BME280;45797;47.466;9.486;2023-02-26T17:51:07;95549.16;;;2.83;62.10
37892;BME280;45797;47.466;9.486;2023-02-26T17:56:16;95559.66;;;2.80;62.35
37892;BME280;45797;47.466;9.486;2023-02-26T18:01:28;95552.16;;;2.74;62.21
37892;BME280;45797;47.466;9.486;2023-02-26T18:06:32;95546.53;;;2.66;62.93
37892;BME280;45797;47.466;9.486;2023-02-26T18:11:35;95522.13;;;2.72;63.12
37892;BME280;45797;47.466;9.486;2023-02-26T18:16:39;95555.66;;;2.73;63.23
37892;BME280;45797;47.466;9.486;2023-02-26T18:21:47;95552.31;;;2.71;63.02
37892;BME280;45797;47.466;9.486;2023-02-26T18:26:48;95568.47;;;2.76;63.45
37892;BME280;45797;47.466;9.486;2023-02-26T18:31:49;95549.97;;;2.85;62.92
37892;BME280;45797;47.466;9.486;2023-02-26T18:36:53;95559.72;;;2.98;62.64
37892;BME280;45797;47.466;9.486;2023-02-26T18:42:07;95568.25;;;3.00;62.57
37892;BME280;45797;47.466;9.486;2023-02-26T18:47:20;95557.81;;;3.01;62.23
37892;BME280;45797;47.466;9.486;2023-02-26T18:52:22;95530.38;;;2.99;62.53
37892;BME280;45797;47.466;9.486;2023-02-26T18:57:24;95554.41;;;3.01;62.56
37892;BME280;45797;47.466;9.486;2023-02-26T19:02:25;95558.63;;;3.03;62.73
37892;BME280;45797;47.466;9.486;2023-02-26T19:07:26;95567.25;;;3.02;62.62
37892;BME280;45797;47.466;9.486;2023-02-26T19:12:34;95580.97;;;3.04;62.41
37892;BME280;45797;47.466;9.486;2023-02-26T19:17:35;95579.44;;;3.00;62.50
37892;BME280;45797;47.466;9.486;2023-02-26T19:22:36;95584.41;;;3.05;62.19
37892;BME280;45797;47.466;9.486;2023-02-26T19:27:38;95595.44;;;3.08;62.27
37892;BME280;45797;47.466;9.486;2023-02-26T19:32:39;95609.06;;;3.12;63.01
37892;BME280;45797;47.466;9.486;2023-02-26T19:37:40;95601.78;;;3.20;62.72
37892;BME280;45797;47.466;9.486;2023-02-26T19:42:42;95590.47;;;3.23;62.34
37892;BME280;45797;47.466;9.486;2023-02-26T19:47:46;95609.63;;;3.19;62.74
37892;BME280;45797;47.466;9.486;2023-02-26T19:52:52;95603.19;;;3.08;62.77
37892;BME280;45797;47.466;9.486;2023-02-26T19:57:54;95611.19;;;3.04;63.17
37892;BME280;45797;47.466;9.486;2023-02-26T20:02:58;95607.97;;;2.99;63.28
37892;BME280;45797;47.466;9.486;2023-02-26T20:08:03;95621.81;;;2.98;63.31
37892;BME280;45797;47.466;9.486;2023-02-26T20:13:07;95624.25;;;3.01;62.79
37892;BME280;45797;47.466;9.486;2023-02-26T20:18:09;95638.34;;;2.94;63.56
37892;BME280;45797;47.466;9.486;2023-02-26T20:23:15;95633.06;;;2.97;62.92
37892;BME280;45797;47.466;9.486;2023-02-26T20:28:32;95624.47;;;2.96;63.44
37892;BME280;45797;47.466;9.486;2023-02-26T20:33:43;95619.81;;;3.03;63.19
37892;BME280;45797;47.466;9.486;2023-02-26T20:38:44;95623.06;;;3.08;63.57
37892;BME280;45797;47.466;9.486;2023-02-26T20:43:45;95631.16;;;3.19;62.75
37892;BME280;45797;47.466;9.486;2023-02-26T20:48:53;95632.34;;;3.12;62.40
37892;BME280;45797;47.466;9.486;2023-02-26T20:54:18;95628.66;;;2.99;63.18
37892;BME280;45797;47.466;9.486;2023-02-26T20:59:21;95632.91;;;3.00;63.00
37892;BME280;45797;47.466;9.486;2023-02-26T21:04:27;95646.41;;;3.06;63.32
37892;BME280;45797;47.466;9.486;2023-02-26T21:09:31;95631.88;;;3.04;63.38
37892;BME280;45797;47.466;9.486;2023-02-26T21:14:32;95628.22;;;3.08;63.32
37892;BME280;45797;47.466;9.486;2023-02-26T21:19:35;95616.06;;;3.10;63.56
37892;BME280;45797;47.466;9.486;2023-02-26T21:24:36;95626.22;;;3.14;62.52
37892;BME280;45797;47.466;9.486;2023-02-26T21:29:39;95626.28;;;3.13;63.26
37892;BME280;45797;47.466;9.486;2023-02-26T21:34:41;95620.47;;;3.08;62.97
37892;BME280;45797;47.466;9.486;2023-02-26T21:39:43;95612.38;;;2.97;63.91
37892;BME280;45797;47.466;9.486;2023-02-26T21:44:51;95615.06;;;2.94;63.20
37892;BME280;45797;47.466;9.486;2023-02-26T21:49:54;95625.16;;;3.00;62.82
37892;BME280;45797;47.466;9.486;2023-02-26T21:54:56;95622.78;;;2.95;63.10
37892;BME280;45797;47.466;9.486;2023-02-26T21:59:56;95627.88;;;2.97;63.24
37892;BME280;45797;47.466;9.486;2023-02-26T22:04:56;95630.16;;;3.03;63.10
37892;BME280;45797;47.466;9.486;2023-02-26T22:09:59;95620.19;;;3.14;62.84
37892;BME280;45797;47.466;9.486;2023-02-26T22:15:16;95631.91;;;3.02;63.02
37892;BME280;45797;47.466;9.486;2023-02-26T22:20:19;95630.06;;;3.06;63.30
37892;BME280;45797;47.466;9.486;2023-02-26T22:25:20;95636.56;;;2.96;62.84
37892;BME280;45797;47.466;9.486;2023-02-26T22:30:20;95637.66;;;2.90;63.38
37892;BME280;45797;47.466;9.486;2023-02-26T22:35:22;95625.72;;;2.88;63.00
37892;BME280;45797;47.466;9.486;2023-02-26T22:40:39;95625.44;;;2.75;62.76
37892;BME280;45797;47.466;9.486;2023-02-26T22:45:39;95621.09;;;2.75;63.04
37892;BME280;45797;47.466;9.486;2023-02-26T22:50:47;95634.78;;;2.77;62.64
37892;BME280;45797;47.466;9.486;2023-02-26T22:55:52;95630.72;;;2.91;62.68
37892;BME280;45797;47.466;9.486;2023-02-26T23:01:01;95633.16;;;2.94;62.20
37892;BME280;45797;47.466;9.486;2023-02-26T23:06:03;95625.88;;;3.03;62.20
37892;BME280;45797;47.466;9.486;2023-02-26T23:11:05;95628.47;;;3.03;61.81
37892;BME280;45797;47.466;9.486;2023-02-26T23:16:08;95636.06;;;3.06;61.84
37892;BME280;45797;47.466;9.486;2023-02-26T23:21:08;95639.84;;;2.99;62.33
37892;BME280;45797;47.466;9.486;2023-02-26T23:26:10;95647.41;;;3.04;62.11
37892;BME280;45797;47.466;9.486;2023-02-26T23:31:11;95640.41;;;3.06;62.01
37892;BME280;45797;47.466;9.486;2023-02-26T23:36:12;95638.56;;;3.08;61.67
37892;BME280;45797;47.466;9.486;2023-02-26T23:41:13;95626.34;;;3.11;61.58
37892;BME280;45797;47.466;9.486;2023-02-26T23:46:13;95631.72;;;3.07;61.85
37892;BME280;45797;47.466;9.486;2023-02-26T23:51:19;95625.16;;;3.00;61.47
37892;BME280;45797;47.466;9.486;2023-02-26T23:56:21;95628.91;;;2.93;62.62
